KMIW/MIW METAR and TAF weather

Enter ICAO airport designator
Station Type Date Time Source
KMIW METAR 2018/12/19 03:53 UTC NOAA

KMIW 190353Z AUTO 15008KT 10SM CLR 03/M01 A2986 RMK AO2 SLP119 T00281006


Station Type Date Time Source
KMIW Decoded METAR 2018/12/19 03:53 UTC NOAA

MARSHALLTOWN MUNICIPAL AIRPORT , IA, United States (KMIW) 42-07N 92-55W 296M
Dec 18, 2018 - 10:53 PM EST / 2018.12.19 0353 UTC
Wind: from the SSE (150 degrees) at 9 MPH (8 KT):0
Visibility: 10 mile(s):0
Sky conditions: clear
Temperature: 37.0 F (2.8 C)
Dew Point: 30.9 F (-0.6 C)
Relative Humidity: 78%
Pressure (altimeter): 29.86 in. Hg (1011 hPa)
ob: KMIW 190353Z AUTO 15008KT 10SM CLR 03/M01 A2986 RMK AO2 SLP119 T00281006
cycle: 4

Station Type Date Time Source
KMIW TAF UTC NOAA

Error!


Example: see airport list